Houston, Ohio
Current Conditions -  °F | °C
As of 1:12 PM on Sunday 25 Jan 2015 (Local Time) from KAXV Reporting Station
Light Snow Light Snow  
Wind Chill: 23°   Ceiling: 600
Heat Index: 32°   Visibility: 3mi
Dew Point: 32°   Wind: 13mph
Humidity: 100%   Direction: 50°NE
Pressure: 29.73"   Gusts: NA
Location:  40.25°N, 84.34°W
Report Text: KAXV 251812Z AUTO 05011KT 3SM -SN OVC006 00/00 A2973 RMK AO2
Loading
Personal Weather Stations






























Interactive Weather Map New forecast layout! Learn more

10-Day Weather Forecast

Advertisements
Track Severe Weather on mobile